createdAt,value
2023-04-18T00:00:24.232Z,8.98
2023-04-18T00:02:53.905Z,8.50
2023-04-18T00:05:20.982Z,8.85
2023-04-18T00:07:47.825Z,9.10
2023-04-18T00:10:14.175Z,8.85
2023-04-18T00:12:40.466Z,8.70
2023-04-18T00:15:10.037Z,7.63
2023-04-18T00:17:38.399Z,8.38
2023-04-18T00:20:07.002Z,8.77
2023-04-18T00:22:33.686Z,8.30
2023-04-18T00:25:00.018Z,7.90
2023-04-18T00:27:26.276Z,7.95
2023-04-18T00:29:52.519Z,8.00
2023-04-18T00:32:19.602Z,7.75
2023-04-18T00:34:45.881Z,7.90
2023-04-18T00:37:12.649Z,6.82
2023-04-18T00:39:38.906Z,6.63
2023-04-18T00:42:05.318Z,6.15
2023-04-18T00:44:32.052Z,7.70
2023-04-18T00:46:58.431Z,6.32
2023-04-18T00:49:25.461Z,7.15
2023-04-18T00:51:51.847Z,7.05
2023-04-18T00:54:18.651Z,6.72
2023-04-18T00:56:45.493Z,6.45
2023-04-18T00:59:11.983Z,6.82
2023-04-18T01:01:40.264Z,7.22
2023-04-18T01:04:08.112Z,5.75
2023-04-18T01:06:35.419Z,6.15
2023-04-18T01:09:02.222Z,6.07
2023-04-18T01:11:28.601Z,5.82
2023-04-18T01:13:58.572Z,6.00
2023-04-18T01:16:24.878Z,5.40
2023-04-18T01:18:51.230Z,6.28
2023-04-18T01:21:18.162Z,6.18
2023-04-18T01:23:44.404Z,6.60
2023-04-18T01:26:11.014Z,5.80
2023-04-18T01:28:37.487Z,6.30
2023-04-18T01:31:03.878Z,5.95
2023-04-18T01:33:30.162Z,5.70
2023-04-18T01:35:56.395Z,6.53
2023-04-18T01:38:22.722Z,5.85
2023-04-18T01:40:49.234Z,6.25
2023-04-18T01:43:15.520Z,6.28
2023-04-18T01:45:41.766Z,6.22
2023-04-18T01:48:08.001Z,7.10
2023-04-18T01:50:34.314Z,6.55
2023-04-18T01:53:00.609Z,5.55
2023-04-18T01:55:26.893Z,5.82
2023-04-18T01:57:53.196Z,6.57
2023-04-18T02:00:19.775Z,6.28
2023-04-18T02:02:46.282Z,6.32
2023-04-18T02:05:12.685Z,6.00
2023-04-18T02:07:39.674Z,5.97
2023-04-18T02:10:06.245Z,5.10
2023-04-18T02:12:32.720Z,6.95
2023-04-18T02:14:58.938Z,6.38
2023-04-18T02:17:25.269Z,5.63
2023-04-18T02:19:51.846Z,5.72
2023-04-18T02:22:18.551Z,5.97
2023-04-18T02:24:44.916Z,5.78
2023-04-18T02:27:11.473Z,5.82
2023-04-18T02:29:37.718Z,5.00
2023-04-18T02:32:04.182Z,5.80
2023-04-18T02:34:30.559Z,6.05
2023-04-18T02:36:56.864Z,6.45
2023-04-18T02:39:23.133Z,5.65
2023-04-18T02:41:49.446Z,6.22
2023-04-18T02:44:16.945Z,6.55
2023-04-18T02:46:43.167Z,5.65
2023-04-18T02:49:09.463Z,5.65
2023-04-18T02:51:35.835Z,5.82
2023-04-18T02:54:02.204Z,6.13
2023-04-18T02:56:28.478Z,6.50
2023-04-18T02:58:54.785Z,6.38
2023-04-18T03:01:21.120Z,5.70
2023-04-18T03:03:47.445Z,5.32
2023-04-18T03:06:13.732Z,6.47
2023-04-18T03:08:41.050Z,6.00
2023-04-18T03:11:07.562Z,6.10
2023-04-18T03:13:34.506Z,5.53
2023-04-18T03:16:02.382Z,6.13
2023-04-18T03:18:28.708Z,5.95
2023-04-18T03:20:55.038Z,5.93
2023-04-18T03:23:21.367Z,5.65
2023-04-18T03:25:47.648Z,6.43
2023-04-18T03:28:13.892Z,6.07
2023-04-18T03:30:40.147Z,6.65
2023-04-18T03:33:06.470Z,6.20
2023-04-18T03:35:32.764Z,6.63
2023-04-18T03:37:59.080Z,6.68
2023-04-18T03:40:25.873Z,6.25
2023-04-18T03:42:52.214Z,5.88
2023-04-18T03:45:18.438Z,6.20
2023-04-18T03:47:44.761Z,5.95
2023-04-18T03:50:11.091Z,5.57
2023-04-18T03:52:37.330Z,6.07
2023-04-18T03:55:04.096Z,5.80
2023-04-18T03:57:30.366Z,6.38
2023-04-18T03:59:56.623Z,6.13
2023-04-18T04:02:22.973Z,3.45
2023-04-18T04:04:49.370Z,3.47
2023-04-18T04:07:15.908Z,3.03
2023-04-18T04:09:42.224Z,2.55
2023-04-18T04:12:08.492Z,3.13
2023-04-18T04:14:34.758Z,2.70
2023-04-18T04:17:01.136Z,2.97
2023-04-18T04:19:27.378Z,2.47
2023-04-18T04:21:53.720Z,3.42
2023-04-18T04:24:22.495Z,3.25
2023-04-18T04:26:50.570Z,2.70
2023-04-18T04:29:17.553Z,3.03
2023-04-18T04:31:44.089Z,3.22
2023-04-18T04:34:10.407Z,3.33
2023-04-18T04:36:36.960Z,3.97
2023-04-18T04:39:06.614Z,3.67
2023-04-18T04:41:32.928Z,3.30
2023-04-18T04:43:59.552Z,3.17
2023-04-18T04:46:29.407Z,2.90
2023-04-18T04:48:55.857Z,3.22
2023-04-18T04:51:22.275Z,3.08
2023-04-18T04:53:48.573Z,3.25
2023-04-18T04:56:15.066Z,3.45
2023-04-18T04:58:41.314Z,3.22
2023-04-18T05:01:09.120Z,3.97
2023-04-18T05:03:36.498Z,3.42
2023-04-18T05:06:03.003Z,3.28
2023-04-18T05:08:29.271Z,3.05
2023-04-18T05:10:55.717Z,3.85
2023-04-18T05:13:22.060Z,3.67
2023-04-18T05:15:49.385Z,4.10
2023-04-18T05:18:15.982Z,3.40
2023-04-18T05:20:42.326Z,2.80
2023-04-18T05:23:08.601Z,3.60
2023-04-18T05:25:34.841Z,3.08
2023-04-18T05:28:01.206Z,3.58
2023-04-18T05:30:27.477Z,3.33
2023-04-18T05:32:53.810Z,3.22
2023-04-18T05:35:20.127Z,2.78
2023-04-18T05:37:46.576Z,3.92
2023-04-18T05:40:13.147Z,3.85
2023-04-18T05:42:39.639Z,3.30
2023-04-18T05:45:06.114Z,3.50
2023-04-18T05:47:33.537Z,2.72
2023-04-18T05:50:00.252Z,4.00
2023-04-18T05:52:26.604Z,2.83
2023-04-18T05:54:53.069Z,2.80
2023-04-18T05:57:19.412Z,3.75
2023-04-18T05:59:45.761Z,3.40
2023-04-18T06:02:13.416Z,3.70
2023-04-18T06:04:41.807Z,3.78
2023-04-18T06:07:08.553Z,4.07
2023-04-18T06:09:35.036Z,4.22
2023-04-18T06:12:01.704Z,3.60
2023-04-18T06:14:28.293Z,4.22
2023-04-18T06:16:54.644Z,3.58
2023-04-18T06:19:20.937Z,4.25
2023-04-18T06:21:47.968Z,4.78
2023-04-18T06:24:14.458Z,3.20
2023-04-18T06:26:40.879Z,2.17
2023-04-18T06:29:07.213Z,4.40
2023-04-18T06:31:33.559Z,2.78
2023-04-18T06:33:59.849Z,4.55
2023-04-18T06:36:27.414Z,3.25
2023-04-18T06:38:53.719Z,3.85
2023-04-18T06:41:20.024Z,3.30
2023-04-18T06:43:59.741Z,4.40
2023-04-18T06:46:29.662Z,3.80
2023-04-18T06:48:56.034Z,3.25
2023-04-18T06:51:22.378Z,3.97
2023-04-18T06:53:52.374Z,4.25
2023-04-18T06:56:20.376Z,3.33
2023-04-18T06:58:46.904Z,4.90
2023-04-18T07:01:13.231Z,3.92
2023-04-18T07:03:39.599Z,4.60
2023-04-18T07:06:06.264Z,4.18
2023-04-18T07:08:34.560Z,4.03
2023-04-18T07:11:00.819Z,3.92
2023-04-18T07:13:27.154Z,3.28
2023-04-18T07:15:53.403Z,2.55
2023-04-18T07:18:30.263Z,4.35
2023-04-18T07:21:01.790Z,4.10
2023-04-18T07:23:28.126Z,4.22
2023-04-18T07:25:54.551Z,3.22
2023-04-18T07:28:21.067Z,4.07
2023-04-18T07:30:48.245Z,2.72
2023-04-18T07:33:14.545Z,3.72
2023-04-18T07:35:40.988Z,3.10
2023-04-18T07:38:07.324Z,2.03
2023-04-18T07:40:33.573Z,4.57
2023-04-18T07:42:59.884Z,3.90
2023-04-18T07:45:26.196Z,4.22
2023-04-18T07:47:52.529Z,3.55
2023-04-18T07:50:18.921Z,4.10
2023-04-18T07:52:48.025Z,4.15
2023-04-18T07:55:14.765Z,3.90
2023-04-18T07:57:45.802Z,5.03
2023-04-18T08:00:12.980Z,3.58
2023-04-18T08:02:39.536Z,3.72
2023-04-18T08:05:06.509Z,3.45
2023-04-18T08:07:32.916Z,3.63
2023-04-18T08:09:59.193Z,3.03
2023-04-18T08:12:25.539Z,3.58
2023-04-18T08:14:51.857Z,3.80
2023-04-18T08:17:18.175Z,3.97
2023-04-18T08:19:45.574Z,2.63
2023-04-18T08:22:12.051Z,3.83
2023-04-18T08:24:38.870Z,3.50
2023-04-18T08:27:05.266Z,4.00
2023-04-18T08:29:31.675Z,3.67
2023-04-18T08:31:58.115Z,1.98
2023-04-18T08:34:24.597Z,2.75
2023-04-18T08:36:51.410Z,2.33
2023-04-18T08:39:17.643Z,2.95
2023-04-18T08:41:45.923Z,3.03
2023-04-18T08:44:12.908Z,3.08
2023-04-18T08:46:39.379Z,2.78
2023-04-18T08:49:06.175Z,4.20
2023-04-18T08:51:35.407Z,2.90
2023-04-18T08:54:04.501Z,2.72
2023-04-18T08:56:31.208Z,2.67
2023-04-18T08:59:00.258Z,2.17
2023-04-18T09:02:01.386Z,2.88
2023-04-18T09:04:35.048Z,3.28
2023-04-18T09:07:02.449Z,2.58
2023-04-18T09:09:39.393Z,2.53
2023-04-18T09:12:07.522Z,3.67
2023-04-18T09:14:36.580Z,2.40
2023-04-18T09:17:04.190Z,2.65
2023-04-18T09:19:30.672Z,2.55
2023-04-18T09:22:01.292Z,2.40
2023-04-18T09:24:28.645Z,2.50
2023-04-18T09:26:59.621Z,2.05
2023-04-18T09:29:46.897Z,2.22
2023-04-18T09:32:20.647Z,1.98
2023-04-18T09:34:47.218Z,2.45
2023-04-18T09:37:13.941Z,2.50
2023-04-18T09:39:43.102Z,2.50
2023-04-18T09:42:10.504Z,2.33
2023-04-18T09:44:37.383Z,2.72
2023-04-18T09:47:03.661Z,2.90
2023-04-18T09:49:29.950Z,3.35
2023-04-18T09:51:56.354Z,3.20
2023-04-18T09:54:23.962Z,3.15
2023-04-18T09:56:50.906Z,2.53
2023-04-18T09:59:28.829Z,3.03
2023-04-18T10:01:55.944Z,2.40
2023-04-18T10:04:22.418Z,2.53
2023-04-18T10:06:48.913Z,1.42
2023-04-18T10:09:16.483Z,2.15
2023-04-18T10:11:43.760Z,2.05
2023-04-18T10:14:11.864Z,2.03
2023-04-18T10:16:38.894Z,1.55
2023-04-18T10:19:26.968Z,1.83
2023-04-18T10:21:53.374Z,1.70
2023-04-18T10:24:38.531Z,2.65
2023-04-18T10:27:04.770Z,1.80
2023-04-18T10:29:50.240Z,1.80
2023-04-18T10:32:17.855Z,2.30
2023-04-18T10:34:46.089Z,1.40
2023-04-18T10:37:13.006Z,1.70
2023-04-18T10:39:54.342Z,2.00
2023-04-18T10:42:40.674Z,1.15
2023-04-18T10:45:18.396Z,2.15
2023-04-18T10:47:44.755Z,1.52
2023-04-18T10:50:11.698Z,2.08
2023-04-18T10:52:38.290Z,1.88
2023-04-18T10:55:14.026Z,1.95
2023-04-18T10:57:41.344Z,1.85
2023-04-18T11:00:14.663Z,2.38
2023-04-18T11:02:47.499Z,1.20
2023-04-18T11:05:18.368Z,2.05
2023-04-18T11:10:12.946Z,2.08
2023-04-18T11:12:40.253Z,1.55
2023-04-18T11:15:10.728Z,2.05
2023-04-18T11:17:39.858Z,3.17
2023-04-18T11:20:14.035Z,2.33
2023-04-18T11:22:50.523Z,3.20
2023-04-18T11:25:17.387Z,2.22
2023-04-18T11:27:44.927Z,3.05
2023-04-18T11:30:13.826Z,3.17
2023-04-18T11:32:40.398Z,2.50
2023-04-18T11:35:10.624Z,2.90
2023-04-18T11:37:37.749Z,2.72
2023-04-18T11:40:04.823Z,2.60
2023-04-18T11:42:32.187Z,3.67
2023-04-18T11:44:58.504Z,3.10
2023-04-18T11:47:29.461Z,3.30
2023-04-18T11:50:00.335Z,3.17
2023-04-18T11:52:27.328Z,3.00
2023-04-18T11:54:54.018Z,3.08
2023-04-18T11:57:26.985Z,2.70
2023-04-18T11:59:54.547Z,3.35
2023-04-18T12:02:21.750Z,3.42
2023-04-18T12:04:54.470Z,2.78
2023-04-18T12:07:53.589Z,1.88
2023-04-18T12:10:19.891Z,3.50
2023-04-18T12:12:53.143Z,2.90
2023-04-18T12:15:19.751Z,2.90
2023-04-18T12:17:48.445Z,3.83
2023-04-18T12:20:15.943Z,3.50
2023-04-18T12:22:47.247Z,3.33
2023-04-18T12:25:26.645Z,2.83
2023-04-18T12:27:53.665Z,4.10
2023-04-18T12:30:21.946Z,2.88
2023-04-18T12:32:49.339Z,2.70
2023-04-18T12:35:16.095Z,3.67
2023-04-18T12:37:42.781Z,3.10
2023-04-18T12:40:09.238Z,3.90
2023-04-18T12:42:35.629Z,3.78
2023-04-18T12:45:03.469Z,3.83
2023-04-18T12:47:30.080Z,4.43
2023-04-18T12:49:56.411Z,3.20
2023-04-18T12:52:22.670Z,3.75
2023-04-18T12:54:48.917Z,4.10
2023-04-18T12:57:15.723Z,3.75
2023-04-18T12:59:42.002Z,4.90
2023-04-18T13:02:08.311Z,4.13
2023-04-18T13:04:34.902Z,4.70
2023-04-18T13:07:01.372Z,4.07
2023-04-18T13:09:28.099Z,3.70
2023-04-18T13:11:54.355Z,3.30
2023-04-18T13:14:21.109Z,4.20
2023-04-18T13:16:48.626Z,3.97
2023-04-18T13:19:15.114Z,4.05
2023-04-18T13:21:41.570Z,3.92
2023-04-18T13:24:07.876Z,4.05
2023-04-18T13:26:36.007Z,4.65
2023-04-18T13:29:02.414Z,4.45
2023-04-18T13:31:29.103Z,3.95
2023-04-18T13:33:55.374Z,4.65
2023-04-18T13:36:21.725Z,4.10
2023-04-18T13:38:48.410Z,4.60
2023-04-18T13:41:14.745Z,4.38
2023-04-18T13:43:40.984Z,3.78
2023-04-18T13:46:07.299Z,4.32
2023-04-18T13:48:33.678Z,3.50
2023-04-18T13:50:59.995Z,3.20
2023-04-18T13:53:26.268Z,3.78
2023-04-18T13:55:52.572Z,4.65
2023-04-18T13:58:18.918Z,4.53
2023-04-18T14:00:45.315Z,4.13
2023-04-18T14:03:11.683Z,3.90
2023-04-18T14:05:38.160Z,4.78
2023-04-18T14:08:04.769Z,4.75
2023-04-18T14:10:31.478Z,3.58
2023-04-18T14:12:57.792Z,4.75
2023-04-18T14:15:24.124Z,4.47
2023-04-18T14:17:50.610Z,3.90
2023-04-18T14:20:19.240Z,4.28
2023-04-18T14:22:46.155Z,5.00
2023-04-18T14:25:12.556Z,4.75
2023-04-18T14:27:39.042Z,5.18
2023-04-18T14:30:08.458Z,4.35
2023-04-18T14:32:35.344Z,4.18
2023-04-18T14:35:04.745Z,4.82
2023-04-18T14:37:31.152Z,5.00
2023-04-18T14:39:57.461Z,4.63
2023-04-18T14:42:23.707Z,3.80
2023-04-18T14:44:50.062Z,4.50
2023-04-18T14:47:16.413Z,4.80
2023-04-18T14:49:42.690Z,4.47
2023-04-18T14:52:08.945Z,5.25
2023-04-18T14:54:36.086Z,4.18
2023-04-18T14:57:02.302Z,5.03
2023-04-18T14:59:28.867Z,4.82
2023-04-18T15:01:55.392Z,4.13
2023-04-18T15:04:22.181Z,4.38
2023-04-18T15:06:48.672Z,5.13
2023-04-18T15:09:15.901Z,5.40
2023-04-18T15:11:42.496Z,4.95
2023-04-18T15:14:08.991Z,5.15
2023-04-18T15:16:38.009Z,4.30
2023-04-18T15:19:04.313Z,5.55
2023-04-18T15:21:30.585Z,5.15
2023-04-18T15:23:57.326Z,4.60
2023-04-18T15:26:24.133Z,4.43
2023-04-18T15:28:51.670Z,3.95
2023-04-18T15:31:17.979Z,4.63
2023-04-18T15:33:44.247Z,3.90
2023-04-18T15:36:10.468Z,4.53
2023-04-18T15:38:36.794Z,4.40
2023-04-18T15:41:03.028Z,3.65
2023-04-18T15:43:29.318Z,3.83
2023-04-18T15:45:55.563Z,3.17
2023-04-18T15:48:21.894Z,2.75
2023-04-18T15:50:51.100Z,2.58
2023-04-18T15:53:17.523Z,4.10
2023-04-18T15:55:46.411Z,2.63
2023-04-18T15:58:13.243Z,3.33
2023-04-18T16:00:39.989Z,4.38
2023-04-18T16:03:09.652Z,3.33
2023-04-18T16:05:36.131Z,3.23
2023-04-18T16:08:02.721Z,4.45
2023-04-18T16:10:29.158Z,3.15
2023-04-18T16:12:55.480Z,4.03
2023-04-18T16:15:21.796Z,4.40
2023-04-18T16:17:48.066Z,3.63
2023-04-18T16:20:14.407Z,3.97
2023-04-18T16:22:40.716Z,4.15
2023-04-18T16:25:07.350Z,3.40
2023-04-18T16:27:33.817Z,3.83
2023-04-18T16:30:00.195Z,4.85
2023-04-18T16:32:26.528Z,3.97
2023-04-18T16:34:52.795Z,3.95
2023-04-18T16:37:19.950Z,3.63
2023-04-18T16:39:46.322Z,3.85
2023-04-18T16:42:15.360Z,4.25
2023-04-18T16:44:42.016Z,4.18
2023-04-18T16:47:08.454Z,3.88
2023-04-18T16:49:34.906Z,4.32
2023-04-18T16:52:01.753Z,4.00
2023-04-18T16:54:27.988Z,3.80
2023-04-18T16:56:54.369Z,3.70
2023-04-18T16:59:20.833Z,3.55
2023-04-18T17:01:47.290Z,4.55
2023-04-18T17:04:14.669Z,3.70
2023-04-18T17:06:42.837Z,4.07
2023-04-18T17:09:09.226Z,3.40
2023-04-18T17:11:39.567Z,3.72
2023-04-18T17:14:07.608Z,3.55
2023-04-18T17:16:34.657Z,3.47
2023-04-18T17:19:01.663Z,4.45
2023-04-18T17:21:28.265Z,3.17
2023-04-18T17:23:55.146Z,4.22
2023-04-18T17:26:22.550Z,3.78
2023-04-18T17:28:48.817Z,3.95
2023-04-18T17:31:15.197Z,4.03
2023-04-18T17:33:41.663Z,4.05
2023-04-18T17:36:07.979Z,3.92
2023-04-18T17:38:34.260Z,3.47
2023-04-18T17:41:01.051Z,3.20
2023-04-18T17:43:27.471Z,3.20
2023-04-18T17:45:53.982Z,3.58
2023-04-18T17:48:20.370Z,3.40
2023-04-18T17:50:46.823Z,3.55
2023-04-18T17:53:13.115Z,4.22
2023-04-18T17:55:40.114Z,3.35
2023-04-18T17:58:06.726Z,3.80
2023-04-18T18:00:33.152Z,3.97
2023-04-18T18:03:01.619Z,4.05
2023-04-18T18:05:28.240Z,4.20
2023-04-18T18:07:56.095Z,3.05
2023-04-18T18:10:23.785Z,3.83
2023-04-18T18:12:50.458Z,3.85
2023-04-18T18:15:17.672Z,3.97
2023-04-18T18:17:43.960Z,4.35
2023-04-18T18:20:13.018Z,3.15
2023-04-18T18:22:39.319Z,4.15
2023-04-18T18:25:05.906Z,3.53
2023-04-18T18:27:32.329Z,3.80
2023-04-18T18:29:58.577Z,4.18
2023-04-18T18:32:26.742Z,4.03
2023-04-18T18:34:53.056Z,3.67
2023-04-18T18:37:19.579Z,4.22
2023-04-18T18:39:45.842Z,3.53
2023-04-18T18:42:12.170Z,4.03
2023-04-18T18:44:38.440Z,4.03
2023-04-18T18:47:04.773Z,3.72
2023-04-18T18:49:31.069Z,3.50
2023-04-18T18:51:57.806Z,3.63
2023-04-18T18:54:24.408Z,3.97
2023-04-18T18:56:51.668Z,4.13
2023-04-18T18:59:18.087Z,2.90
2023-04-18T19:01:44.506Z,4.32
2023-04-18T19:04:11.338Z,3.90
2023-04-18T19:06:37.936Z,3.60
2023-04-18T19:09:05.162Z,3.63
2023-04-18T19:11:31.497Z,2.75
2023-04-18T19:13:57.788Z,3.42
2023-04-18T19:16:24.193Z,6.45
2023-04-18T19:18:50.661Z,6.60
2023-04-18T19:21:17.410Z,6.13
2023-04-18T19:23:43.711Z,6.53
2023-04-18T19:26:10.398Z,6.00
2023-04-18T19:28:36.701Z,6.25
2023-04-18T19:31:03.021Z,6.15
2023-04-18T19:33:29.378Z,6.25
2023-04-18T19:35:55.860Z,6.40
2023-04-18T19:38:22.378Z,6.00
2023-04-18T19:40:48.805Z,6.32
2023-04-18T19:43:15.157Z,6.20
2023-04-18T19:45:41.499Z,5.35
2023-04-18T19:48:07.886Z,6.65
2023-04-18T19:50:34.209Z,6.28
2023-04-18T19:53:00.500Z,5.80
2023-04-18T19:55:26.975Z,6.25
2023-04-18T19:57:54.671Z,5.85
2023-04-18T20:00:21.617Z,5.72
2023-04-18T20:02:48.210Z,5.85
2023-04-18T20:05:14.809Z,5.97
2023-04-18T20:07:41.746Z,5.63
2023-04-18T20:10:08.985Z,5.65
2023-04-18T20:12:35.747Z,5.95
2023-04-18T20:15:02.101Z,5.68
2023-04-18T20:17:30.478Z,5.60
2023-04-18T20:19:57.069Z,4.93
2023-04-18T20:22:26.897Z,5.32
2023-04-18T20:24:53.432Z,4.90
2023-04-18T20:27:20.607Z,5.97
2023-04-18T20:29:46.868Z,5.97
2023-04-18T20:32:13.095Z,5.00
2023-04-18T20:34:39.491Z,5.70
2023-04-18T20:37:09.883Z,5.38
2023-04-18T20:39:38.011Z,5.40
2023-04-18T20:42:04.518Z,5.38
2023-04-18T20:44:31.911Z,6.05
2023-04-18T20:46:58.196Z,5.75
2023-04-18T20:49:24.428Z,5.68
2023-04-18T20:51:50.747Z,6.03
2023-04-18T20:54:17.476Z,5.60
2023-04-18T20:56:43.881Z,5.60
2023-04-18T20:59:10.207Z,5.80
2023-04-18T21:01:37.274Z,5.60
2023-04-18T21:04:03.806Z,5.13
2023-04-18T21:06:30.970Z,5.30
2023-04-18T21:08:57.225Z,5.88
2023-04-18T21:11:23.734Z,5.60
2023-04-18T21:13:50.099Z,5.82
2023-04-18T21:16:16.533Z,4.95
2023-04-18T21:18:42.838Z,5.03
2023-04-18T21:21:09.214Z,5.22
2023-04-18T21:23:41.092Z,6.05
2023-04-18T21:26:07.543Z,5.30
2023-04-18T21:28:33.765Z,5.60
2023-04-18T21:31:00.117Z,5.40
2023-04-18T21:33:26.467Z,2.63
2023-04-18T21:35:52.746Z,2.28
2023-04-18T21:38:19.222Z,5.15
2023-04-18T21:40:45.636Z,5.90
2023-04-18T21:43:11.947Z,3.38
2023-04-18T21:45:38.222Z,4.88
2023-04-18T21:48:05.044Z,5.32
2023-04-18T21:50:31.355Z,5.20
2023-04-18T21:52:57.666Z,5.30
2023-04-18T21:55:23.893Z,5.18
2023-04-18T21:57:50.161Z,5.15
2023-04-18T22:00:16.652Z,5.18
2023-04-18T22:02:43.101Z,5.30
2023-04-18T22:05:09.517Z,5.53
2023-04-18T22:07:43.327Z,5.68
2023-04-18T22:12:44.311Z,5.25
2023-04-18T22:15:10.775Z,5.68
2023-04-18T22:17:37.865Z,5.47
2023-04-18T22:20:05.691Z,5.05
2023-04-18T22:22:31.929Z,5.15
2023-04-18T22:24:58.175Z,5.20
2023-04-18T22:27:24.496Z,4.65
2023-04-18T22:29:51.047Z,6.05
2023-04-18T22:32:17.307Z,5.50
2023-04-18T22:34:44.661Z,5.40
2023-04-18T22:37:10.948Z,5.28
2023-04-18T22:39:37.237Z,5.40
2023-04-18T22:42:03.628Z,5.03
2023-04-18T22:44:29.957Z,5.43
2023-04-18T22:46:56.263Z,5.68
2023-04-18T22:49:23.185Z,4.97
2023-04-18T22:51:49.653Z,5.18
2023-04-18T22:54:16.122Z,4.93
2023-04-18T22:56:42.554Z,5.72
2023-04-18T22:59:08.820Z,5.65
2023-04-18T23:01:35.178Z,5.20
2023-04-18T23:04:01.653Z,5.38
2023-04-18T23:06:28.261Z,6.13
2023-04-18T23:08:54.466Z,4.80
2023-04-18T23:11:21.524Z,6.00
2023-04-18T23:13:47.832Z,6.70
2023-04-18T23:16:14.130Z,6.45
2023-04-18T23:18:40.559Z,6.03
2023-04-18T23:21:06.987Z,5.43
2023-04-18T23:23:33.252Z,5.80
2023-04-18T23:26:00.156Z,5.93
2023-04-18T23:28:26.502Z,5.70
2023-04-18T23:30:52.788Z,5.95
2023-04-18T23:33:19.107Z,5.75
2023-04-18T23:35:45.467Z,5.22
2023-04-18T23:38:11.710Z,5.82
2023-04-18T23:40:38.010Z,5.50
2023-04-18T23:43:04.281Z,5.45
2023-04-18T23:45:30.978Z,5.93
2023-04-18T23:47:57.332Z,5.53
2023-04-18T23:50:23.617Z,5.85
2023-04-18T23:52:49.910Z,6.05
2023-04-18T23:55:16.671Z,6.30
2023-04-18T23:57:43.068Z,6.28
